This is the latest recevied weather packets stored in our database for station/object EA4URC-10. If no packets are shown the sender has not sent any weather packets the latest 10 day(s).
| Time | Temp. | Humidity | Pressure | Rain* | Wind** | Luminosity | Snow |
|---|---|---|---|---|---|---|---|
| 1777446205 | 8.33° C | 100% | 1026.6 hPa | - | - | - | - |
| 1777444399 | 8.33° C | 100% | 1026.2 hPa | - | - | - | - |
| 1777442603 | 7.78° C | 100% | 1026 hPa | - | - | - | - |
| 1777440800 | 7.78° C | 100% | 1025.7 hPa | - | - | - | - |
| 1777439002 | 7.78° C | 100% | 1025.8 hPa | - | - | - | - |
| 1777437195 | 7.22° C | 100% | 1025.7 hPa | - | - | - | - |
| 1777435394 | 7.78° C | 100% | 1025.8 hPa | - | - | - | - |
| 1777433594 | 7.78° C | 100% | 1025.9 hPa | - | - | - | - |
| 1777431793 | 8.33° C | 100% | 1025.9 hPa | - | - | - | - |
| 1777429999 | 8.89° C | 100% | 1026.1 hPa | - | - | - | - |
| 1777428198 | 8.89° C | 100% | 1026.2 hPa | - | - | - | - |
| 1777426398 | 8.89° C | 100% | 1026.2 hPa | - | - | - | - |
| 1777424602 | 8.89° C | 96% | 1026.4 hPa | - | - | - | - |
| 1777422797 | 8.89° C | 91% | 1026.5 hPa | - | - | - | - |
| 1777420996 | 9.44° C | 90% | 1026.7 hPa | - | - | - | - |
| 1777419195 | 10° C | 83% | 1027 hPa | - | - | - | - |
| 1777417395 | 10.56° C | 83% | 1027.1 hPa | - | - | - | - |
| 1777415594 | 10.56° C | 79% | 1027.1 hPa | - | - | - | - |
| 1777413794 | 11.11° C | 74% | 1027.2 hPa | - | - | - | - |
| 1777411993 | 11.67° C | 72% | 1027.2 hPa | - | - | - | - |
| 1777408403 | 11.67° C | 72% | 1027.3 hPa | - | - | - | - |
| 1777406603 | 12.22° C | 70% | 1027 hPa | - | - | - | - |
| 1777404804 | 12.22° C | 68% | 1026.6 hPa | - | - | - | - |
| 1777401203 | 13.89° C | 56% | 1026.2 hPa | - | - | - | - |
| 1777399395 | 14.44° C | 50% | 1026 hPa | - | - | - | - |
* Rain since midnight (hover to see other rain measurements)
** Current wind speed in m/s (hover to see current wind gust speed)